sensor_id;sensor_type;location;lat;lon;timestamp;temperature;humidity
54846;DHT22;53889;50.084;8.646;2023-05-10T00:00:53;14.40;99.90
54846;DHT22;53889;50.084;8.646;2023-05-10T00:03:20;14.30;99.90
54846;DHT22;53889;50.084;8.646;2023-05-10T00:05:47;14.30;99.90
54846;DHT22;53889;50.084;8.646;2023-05-10T00:08:15;14.20;99.90
54846;DHT22;53889;50.084;8.646;2023-05-10T00:10:42;14.20;99.90
54846;DHT22;53889;50.084;8.646;2023-05-10T00:13:08;14.10;99.90
54846;DHT22;53889;50.084;8.646;2023-05-10T00:15:35;14.10;99.90
54846;DHT22;53889;50.084;8.646;2023-05-10T00:18:02;14.00;99.90
54846;DHT22;53889;50.084;8.646;2023-05-10T00:20:29;14.00;99.90
54846;DHT22;53889;50.084;8.646;2023-05-10T00:22:55;14.00;99.90
54846;DHT22;53889;50.084;8.646;2023-05-10T00:25:23;14.00;99.90
54846;DHT22;53889;50.084;8.646;2023-05-10T00:27:50;13.90;99.90
54846;DHT22;53889;50.084;8.646;2023-05-10T00:30:17;13.90;99.90
54846;DHT22;53889;50.084;8.646;2023-05-10T00:32:44;13.90;99.90
54846;DHT22;53889;50.084;8.646;2023-05-10T00:35:11;13.80;99.90
54846;DHT22;53889;50.084;8.646;2023-05-10T00:37:38;13.80;99.90
54846;DHT22;53889;50.084;8.646;2023-05-10T00:40:06;13.80;99.90
54846;DHT22;53889;50.084;8.646;2023-05-10T00:42:34;13.80;99.90
54846;DHT22;53889;50.084;8.646;2023-05-10T00:45:02;13.70;99.90
54846;DHT22;53889;50.084;8.646;2023-05-10T00:47:29;13.70;99.90
54846;DHT22;53889;50.084;8.646;2023-05-10T00:49:56;13.70;99.90
54846;DHT22;53889;50.084;8.646;2023-05-10T00:52:23;13.70;99.90
54846;DHT22;53889;50.084;8.646;2023-05-10T00:54:51;13.90;99.90
54846;DHT22;53889;50.084;8.646;2023-05-10T00:57:18;13.70;99.90
54846;DHT22;53889;50.084;8.646;2023-05-10T00:59:46;13.70;99.90
54846;DHT22;53889;50.084;8.646;2023-05-10T01:02:14;13.70;99.90
54846;DHT22;53889;50.084;8.646;2023-05-10T01:04:41;13.60;99.90
54846;DHT22;53889;50.084;8.646;2023-05-10T01:07:07;14.10;99.90
54846;DHT22;53889;50.084;8.646;2023-05-10T01:09:34;13.60;99.90
54846;DHT22;53889;50.084;8.646;2023-05-10T01:12:01;13.60;99.90
54846;DHT22;53889;50.084;8.646;2023-05-10T01:14:29;13.60;99.90
54846;DHT22;53889;50.084;8.646;2023-05-10T01:16:58;13.60;99.90
54846;DHT22;53889;50.084;8.646;2023-05-10T01:19:26;13.60;99.90
54846;DHT22;53889;50.084;8.646;2023-05-10T01:22:00;13.60;99.90
54846;DHT22;53889;50.084;8.646;2023-05-10T01:25:10;13.60;99.90
54846;DHT22;53889;50.084;8.646;2023-05-10T01:27:53;13.60;99.90
54846;DHT22;53889;50.084;8.646;2023-05-10T01:33:24;13.50;99.90
54846;DHT22;53889;50.084;8.646;2023-05-10T01:36:01;13.50;99.90
54846;DHT22;53889;50.084;8.646;2023-05-10T01:38:36;13.50;99.90
54846;DHT22;53889;50.084;8.646;2023-05-10T01:41:12;13.50;99.90
54846;DHT22;53889;50.084;8.646;2023-05-10T01:43:48;13.40;99.90
54846;DHT22;53889;50.084;8.646;2023-05-10T01:46:20;13.50;99.90
54846;DHT22;53889;50.084;8.646;2023-05-10T01:48:53;13.40;99.90
54846;DHT22;53889;50.084;8.646;2023-05-10T01:51:23;13.40;99.90
54846;DHT22;53889;50.084;8.646;2023-05-10T01:53:57;13.90;99.90
54846;DHT22;53889;50.084;8.646;2023-05-10T01:56:26;13.40;99.90
54846;DHT22;53889;50.084;8.646;2023-05-10T01:58:55;13.40;99.90
54846;DHT22;53889;50.084;8.646;2023-05-10T02:01:24;13.40;99.90
54846;DHT22;53889;50.084;8.646;2023-05-10T02:03:55;13.50;99.90
54846;DHT22;53889;50.084;8.646;2023-05-10T02:06:24;13.50;99.90
54846;DHT22;53889;50.084;8.646;2023-05-10T02:08:52;13.40;99.90
54846;DHT22;53889;50.084;8.646;2023-05-10T02:11:20;13.40;99.90
54846;DHT22;53889;50.084;8.646;2023-05-10T02:13:49;13.40;99.90
54846;DHT22;53889;50.084;8.646;2023-05-10T02:16:17;13.40;99.90
54846;DHT22;53889;50.084;8.646;2023-05-10T02:18:45;13.50;99.90
54846;DHT22;53889;50.084;8.646;2023-05-10T02:21:14;13.50;99.90
54846;DHT22;53889;50.084;8.646;2023-05-10T02:23:42;13.50;99.90
54846;DHT22;53889;50.084;8.646;2023-05-10T02:26:10;13.50;99.90
54846;DHT22;53889;50.084;8.646;2023-05-10T02:28:40;13.50;99.90
54846;DHT22;53889;50.084;8.646;2023-05-10T02:31:07;13.40;99.90
54846;DHT22;53889;50.084;8.646;2023-05-10T02:33:38;13.40;99.90
54846;DHT22;53889;50.084;8.646;2023-05-10T02:36:07;13.40;99.90
54846;DHT22;53889;50.084;8.646;2023-05-10T02:38:37;13.40;99.90
54846;DHT22;53889;50.084;8.646;2023-05-10T02:41:06;13.40;99.90
54846;DHT22;53889;50.084;8.646;2023-05-10T02:43:35;13.40;99.90
54846;DHT22;53889;50.084;8.646;2023-05-10T02:46:02;13.40;99.90
54846;DHT22;53889;50.084;8.646;2023-05-10T02:48:29;13.40;99.90
54846;DHT22;53889;50.084;8.646;2023-05-10T02:51:03;13.40;99.90
54846;DHT22;53889;50.084;8.646;2023-05-10T02:53:33;13.40;99.90
54846;DHT22;53889;50.084;8.646;2023-05-10T02:56:05;13.30;99.90
54846;DHT22;53889;50.084;8.646;2023-05-10T02:58:34;13.30;99.90
54846;DHT22;53889;50.084;8.646;2023-05-10T03:01:01;13.30;99.90
54846;DHT22;53889;50.084;8.646;2023-05-10T03:03:28;13.30;99.90
54846;DHT22;53889;50.084;8.646;2023-05-10T03:05:55;13.30;99.90
54846;DHT22;53889;50.084;8.646;2023-05-10T03:08:24;13.30;99.90
54846;DHT22;53889;50.084;8.646;2023-05-10T03:10:59;13.20;99.90
54846;DHT22;53889;50.084;8.646;2023-05-10T03:13:39;13.20;99.90
54846;DHT22;53889;50.084;8.646;2023-05-10T03:16:10;13.30;99.90
54846;DHT22;53889;50.084;8.646;2023-05-10T03:18:42;13.30;99.90
54846;DHT22;53889;50.084;8.646;2023-05-10T03:21:11;13.30;99.90
54846;DHT22;53889;50.084;8.646;2023-05-10T03:23:46;13.30;99.90
54846;DHT22;53889;50.084;8.646;2023-05-10T03:26:17;13.30;99.90
54846;DHT22;53889;50.084;8.646;2023-05-10T03:28:49;13.30;99.90
54846;DHT22;53889;50.084;8.646;2023-05-10T03:31:17;13.20;99.90
54846;DHT22;53889;50.084;8.646;2023-05-10T03:33:47;13.30;99.90
54846;DHT22;53889;50.084;8.646;2023-05-10T03:36:16;13.20;99.90
54846;DHT22;53889;50.084;8.646;2023-05-10T03:38:43;13.30;99.90
54846;DHT22;53889;50.084;8.646;2023-05-10T03:41:10;13.20;99.90
54846;DHT22;53889;50.084;8.646;2023-05-10T03:43:37;13.30;99.90
54846;DHT22;53889;50.084;8.646;2023-05-10T03:46:05;13.20;99.90
54846;DHT22;53889;50.084;8.646;2023-05-10T03:48:33;13.20;99.90
54846;DHT22;53889;50.084;8.646;2023-05-10T03:51:00;13.30;99.90
54846;DHT22;53889;50.084;8.646;2023-05-10T03:53:27;13.30;99.90
54846;DHT22;53889;50.084;8.646;2023-05-10T03:55:54;13.40;99.90
54846;DHT22;53889;50.084;8.646;2023-05-10T03:58:21;13.40;99.90
54846;DHT22;53889;50.084;8.646;2023-05-10T04:00:48;13.40;99.90
54846;DHT22;53889;50.084;8.646;2023-05-10T04:03:16;13.50;99.90
54846;DHT22;53889;50.084;8.646;2023-05-10T04:05:43;13.50;99.90
54846;DHT22;53889;50.084;8.646;2023-05-10T04:08:11;13.50;99.90
54846;DHT22;53889;50.084;8.646;2023-05-10T04:10:37;13.50;99.90
54846;DHT22;53889;50.084;8.646;2023-05-10T04:13:05;13.70;99.90
54846;DHT22;53889;50.084;8.646;2023-05-10T04:15:32;13.50;99.90
54846;DHT22;53889;50.084;8.646;2023-05-10T04:17:58;13.50;99.90
54846;DHT22;53889;50.084;8.646;2023-05-10T04:20:27;13.50;99.90
54846;DHT22;53889;50.084;8.646;2023-05-10T04:22:53;13.50;99.90
54846;DHT22;53889;50.084;8.646;2023-05-10T04:25:20;13.60;99.90
54846;DHT22;53889;50.084;8.646;2023-05-10T04:27:47;13.60;99.90
54846;DHT22;53889;50.084;8.646;2023-05-10T04:30:14;13.50;99.90
54846;DHT22;53889;50.084;8.646;2023-05-10T04:32:41;13.50;99.90
54846;DHT22;53889;50.084;8.646;2023-05-10T04:35:08;13.60;99.90
54846;DHT22;53889;50.084;8.646;2023-05-10T04:37:37;13.60;99.90
54846;DHT22;53889;50.084;8.646;2023-05-10T04:40:05;13.60;99.90
54846;DHT22;53889;50.084;8.646;2023-05-10T04:42:32;13.60;99.90
54846;DHT22;53889;50.084;8.646;2023-05-10T04:44:59;13.60;99.90
54846;DHT22;53889;50.084;8.646;2023-05-10T04:47:25;13.60;99.90
54846;DHT22;53889;50.084;8.646;2023-05-10T04:49:52;13.60;99.90
54846;DHT22;53889;50.084;8.646;2023-05-10T04:52:19;13.70;99.90
54846;DHT22;53889;50.084;8.646;2023-05-10T04:54:47;13.70;99.90
54846;DHT22;53889;50.084;8.646;2023-05-10T04:57:14;13.60;99.90
54846;DHT22;53889;50.084;8.646;2023-05-10T04:59:41;13.70;99.90
54846;DHT22;53889;50.084;8.646;2023-05-10T05:02:08;14.70;99.90
54846;DHT22;53889;50.084;8.646;2023-05-10T05:04:35;13.70;99.90
54846;DHT22;53889;50.084;8.646;2023-05-10T05:07:02;13.70;99.90
54846;DHT22;53889;50.084;8.646;2023-05-10T05:09:29;13.80;99.90
54846;DHT22;53889;50.084;8.646;2023-05-10T05:11:58;13.80;99.90
54846;DHT22;53889;50.084;8.646;2023-05-10T05:14:26;13.80;99.90
54846;DHT22;53889;50.084;8.646;2023-05-10T05:16:53;13.70;99.90
54846;DHT22;53889;50.084;8.646;2023-05-10T05:19:20;13.80;99.90
54846;DHT22;53889;50.084;8.646;2023-05-10T05:21:47;13.70;99.90
54846;DHT22;53889;50.084;8.646;2023-05-10T05:24:14;13.70;99.90
54846;DHT22;53889;50.084;8.646;2023-05-10T05:26:41;13.80;99.90
54846;DHT22;53889;50.084;8.646;2023-05-10T05:29:09;14.10;99.90
54846;DHT22;53889;50.084;8.646;2023-05-10T05:31:36;13.80;99.90
54846;DHT22;53889;50.084;8.646;2023-05-10T05:34:02;13.90;99.90
54846;DHT22;53889;50.084;8.646;2023-05-10T05:36:29;13.90;99.90
54846;DHT22;53889;50.084;8.646;2023-05-10T05:38:56;13.90;99.90
54846;DHT22;53889;50.084;8.646;2023-05-10T05:41:23;14.00;99.90
54846;DHT22;53889;50.084;8.646;2023-05-10T05:43:50;14.00;99.90
54846;DHT22;53889;50.084;8.646;2023-05-10T05:46:18;14.10;99.90
54846;DHT22;53889;50.084;8.646;2023-05-10T05:48:45;14.10;99.90
54846;DHT22;53889;50.084;8.646;2023-05-10T05:51:12;14.10;99.90
54846;DHT22;53889;50.084;8.646;2023-05-10T05:53:39;14.10;99.90
54846;DHT22;53889;50.084;8.646;2023-05-10T05:56:06;14.10;99.90
54846;DHT22;53889;50.084;8.646;2023-05-10T05:58:33;14.20;99.90
54846;DHT22;53889;50.084;8.646;2023-05-10T06:01:00;14.90;99.90
54846;DHT22;53889;50.084;8.646;2023-05-10T06:03:28;14.20;99.90
54846;DHT22;53889;50.084;8.646;2023-05-10T06:05:55;14.20;99.90
54846;DHT22;53889;50.084;8.646;2023-05-10T06:08:21;14.30;99.90
54846;DHT22;53889;50.084;8.646;2023-05-10T06:10:48;14.30;99.90
54846;DHT22;53889;50.084;8.646;2023-05-10T06:13:15;14.30;99.90
54846;DHT22;53889;50.084;8.646;2023-05-10T06:15:42;14.40;99.90
54846;DHT22;53889;50.084;8.646;2023-05-10T06:18:10;14.40;99.90
54846;DHT22;53889;50.084;8.646;2023-05-10T06:20:38;14.40;99.90
54846;DHT22;53889;50.084;8.646;2023-05-10T06:23:07;14.60;99.90
54846;DHT22;53889;50.084;8.646;2023-05-10T06:25:34;14.60;99.90
54846;DHT22;53889;50.084;8.646;2023-05-10T06:28:01;14.70;99.90
54846;DHT22;53889;50.084;8.646;2023-05-10T06:30:27;14.80;99.90
54846;DHT22;53889;50.084;8.646;2023-05-10T06:32:54;14.80;99.90
54846;DHT22;53889;50.084;8.646;2023-05-10T06:35:21;14.70;99.90
54846;DHT22;53889;50.084;8.646;2023-05-10T06:37:50;14.70;99.90
54846;DHT22;53889;50.084;8.646;2023-05-10T06:40:17;14.70;99.90
54846;DHT22;53889;50.084;8.646;2023-05-10T06:42:45;14.70;99.90
54846;DHT22;53889;50.084;8.646;2023-05-10T06:45:12;14.70;99.90
54846;DHT22;53889;50.084;8.646;2023-05-10T06:47:40;14.60;99.90
54846;DHT22;53889;50.084;8.646;2023-05-10T06:50:07;14.70;99.90
54846;DHT22;53889;50.084;8.646;2023-05-10T06:52:34;14.70;99.90
54846;DHT22;53889;50.084;8.646;2023-05-10T06:55:04;14.70;99.90
54846;DHT22;53889;50.084;8.646;2023-05-10T06:57:31;14.70;99.90
54846;DHT22;53889;50.084;8.646;2023-05-10T06:59:58;14.80;99.90
54846;DHT22;53889;50.084;8.646;2023-05-10T07:02:24;14.80;99.90
54846;DHT22;53889;50.084;8.646;2023-05-10T07:04:51;14.90;99.90
54846;DHT22;53889;50.084;8.646;2023-05-10T07:07:18;14.90;99.90
54846;DHT22;53889;50.084;8.646;2023-05-10T07:09:45;15.00;99.90
54846;DHT22;53889;50.084;8.646;2023-05-10T07:12:13;15.00;99.90
54846;DHT22;53889;50.084;8.646;2023-05-10T07:14:40;15.10;99.90
54846;DHT22;53889;50.084;8.646;2023-05-10T07:17:07;15.10;99.90
54846;DHT22;53889;50.084;8.646;2023-05-10T07:19:33;15.10;99.90
54846;DHT22;53889;50.084;8.646;2023-05-10T07:22:01;15.10;99.90
54846;DHT22;53889;50.084;8.646;2023-05-10T07:24:28;15.20;99.90
54846;DHT22;53889;50.084;8.646;2023-05-10T07:26:55;15.20;99.90
54846;DHT22;53889;50.084;8.646;2023-05-10T07:29:23;15.30;99.90
54846;DHT22;53889;50.084;8.646;2023-05-10T07:31:52;15.30;99.90
54846;DHT22;53889;50.084;8.646;2023-05-10T07:34:18;15.30;99.90
54846;DHT22;53889;50.084;8.646;2023-05-10T07:36:45;15.40;99.90
54846;DHT22;53889;50.084;8.646;2023-05-10T07:39:12;15.40;99.90
54846;DHT22;53889;50.084;8.646;2023-05-10T07:41:39;15.30;99.90
54846;DHT22;53889;50.084;8.646;2023-05-10T07:44:06;15.40;99.90
54846;DHT22;53889;50.084;8.646;2023-05-10T07:46:34;15.40;99.90
54846;DHT22;53889;50.084;8.646;2023-05-10T07:49:01;15.40;99.90
54846;DHT22;53889;50.084;8.646;2023-05-10T07:51:27;15.50;99.90
54846;DHT22;53889;50.084;8.646;2023-05-10T07:53:54;15.60;99.90
54846;DHT22;53889;50.084;8.646;2023-05-10T07:56:23;15.60;99.90
54846;DHT22;53889;50.084;8.646;2023-05-10T07:58:50;16.20;99.90
54846;DHT22;53889;50.084;8.646;2023-05-10T08:01:17;15.80;99.90
54846;DHT22;53889;50.084;8.646;2023-05-10T08:03:45;15.90;99.90
54846;DHT22;53889;50.084;8.646;2023-05-10T08:06:12;16.20;99.90
54846;DHT22;53889;50.084;8.646;2023-05-10T08:08:39;16.40;99.90
54846;DHT22;53889;50.084;8.646;2023-05-10T08:11:06;16.40;99.90
54846;DHT22;53889;50.084;8.646;2023-05-10T08:13:33;16.40;99.90
54846;DHT22;53889;50.084;8.646;2023-05-10T08:16:00;16.30;99.90
54846;DHT22;53889;50.084;8.646;2023-05-10T08:18:26;16.10;99.90
54846;DHT22;53889;50.084;8.646;2023-05-10T08:20:55;16.50;99.90
54846;DHT22;53889;50.084;8.646;2023-05-10T08:23:21;16.20;99.90
54846;DHT22;53889;50.084;8.646;2023-05-10T08:25:48;16.20;99.90
54846;DHT22;53889;50.084;8.646;2023-05-10T08:28:15;16.40;99.90
54846;DHT22;53889;50.084;8.646;2023-05-10T08:30:41;16.50;99.90
54846;DHT22;53889;50.084;8.646;2023-05-10T08:33:08;16.50;99.90
54846;DHT22;53889;50.084;8.646;2023-05-10T08:35:35;16.50;99.90
54846;DHT22;53889;50.084;8.646;2023-05-10T08:38:03;16.40;99.90
54846;DHT22;53889;50.084;8.646;2023-05-10T08:40:30;16.20;99.90
54846;DHT22;53889;50.084;8.646;2023-05-10T08:43:01;16.20;99.90
54846;DHT22;53889;50.084;8.646;2023-05-10T08:45:32;16.30;99.90
54846;DHT22;53889;50.084;8.646;2023-05-10T08:48:01;16.40;99.90
54846;DHT22;53889;50.084;8.646;2023-05-10T08:50:28;16.40;99.90
54846;DHT22;53889;50.084;8.646;2023-05-10T08:52:59;16.40;99.90
54846;DHT22;53889;50.084;8.646;2023-05-10T08:55:28;16.40;99.90
54846;DHT22;53889;50.084;8.646;2023-05-10T08:57:55;16.70;99.90
54846;DHT22;53889;50.084;8.646;2023-05-10T09:00:22;17.10;99.90
54846;DHT22;53889;50.084;8.646;2023-05-10T09:02:50;17.50;99.90
54846;DHT22;53889;50.084;8.646;2023-05-10T09:05:17;17.70;99.90
54846;DHT22;53889;50.084;8.646;2023-05-10T09:07:44;17.60;99.90
54846;DHT22;53889;50.084;8.646;2023-05-10T09:10:11;17.40;99.90
54846;DHT22;53889;50.084;8.646;2023-05-10T09:12:41;17.00;99.90
54846;DHT22;53889;50.084;8.646;2023-05-10T09:15:09;16.90;99.90
54846;DHT22;53889;50.084;8.646;2023-05-10T09:17:37;16.90;99.90
54846;DHT22;53889;50.084;8.646;2023-05-10T09:20:06;17.00;99.90
54846;DHT22;53889;50.084;8.646;2023-05-10T09:22:33;17.20;99.90
54846;DHT22;53889;50.084;8.646;2023-05-10T09:25:05;17.40;99.90
54846;DHT22;53889;50.084;8.646;2023-05-10T09:27:32;17.30;99.90
54846;DHT22;53889;50.084;8.646;2023-05-10T09:30:00;17.30;99.90
54846;DHT22;53889;50.084;8.646;2023-05-10T09:32:37;17.30;99.90
54846;DHT22;53889;50.084;8.646;2023-05-10T09:35:08;17.10;99.90
54846;DHT22;53889;50.084;8.646;2023-05-10T09:37:35;17.10;99.90
54846;DHT22;53889;50.084;8.646;2023-05-10T09:40:05;17.70;99.90
54846;DHT22;53889;50.084;8.646;2023-05-10T09:42:33;17.10;99.90
54846;DHT22;53889;50.084;8.646;2023-05-10T09:45:03;17.00;99.90
54846;DHT22;53889;50.084;8.646;2023-05-10T09:47:32;16.90;99.90
54846;DHT22;53889;50.084;8.646;2023-05-10T09:49:58;16.80;99.90
54846;DHT22;53889;50.084;8.646;2023-05-10T09:52:29;16.70;99.90
54846;DHT22;53889;50.084;8.646;2023-05-10T09:54:56;16.70;99.90
54846;DHT22;53889;50.084;8.646;2023-05-10T09:57:24;16.50;99.90
54846;DHT22;53889;50.084;8.646;2023-05-10T09:59:51;16.50;99.90
54846;DHT22;53889;50.084;8.646;2023-05-10T10:02:21;16.20;99.90
54846;DHT22;53889;50.084;8.646;2023-05-10T10:04:55;15.80;99.90
54846;DHT22;53889;50.084;8.646;2023-05-10T10:07:23;15.50;99.90
54846;DHT22;53889;50.084;8.646;2023-05-10T10:10:02;15.20;99.90
54846;DHT22;53889;50.084;8.646;2023-05-10T10:12:44;15.60;99.90
54846;DHT22;53889;50.084;8.646;2023-05-10T10:15:17;14.70;99.90
54846;DHT22;53889;50.084;8.646;2023-05-10T10:17:46;15.30;99.90
54846;DHT22;53889;50.084;8.646;2023-05-10T10:20:16;15.40;99.90
54846;DHT22;53889;50.084;8.646;2023-05-10T10:22:43;15.50;99.90
54846;DHT22;53889;50.084;8.646;2023-05-10T10:25:11;15.50;99.90
54846;DHT22;53889;50.084;8.646;2023-05-10T10:27:45;15.60;99.90
54846;DHT22;53889;50.084;8.646;2023-05-10T10:30:21;15.70;99.90
54846;DHT22;53889;50.084;8.646;2023-05-10T10:33:06;15.80;99.90
54846;DHT22;53889;50.084;8.646;2023-05-10T10:35:35;15.80;99.90
54846;DHT22;53889;50.084;8.646;2023-05-10T10:38:02;17.30;99.90
54846;DHT22;53889;50.084;8.646;2023-05-10T10:40:30;15.50;99.90
54846;DHT22;53889;50.084;8.646;2023-05-10T10:42:58;15.40;99.90
54846;DHT22;53889;50.084;8.646;2023-05-10T10:45:48;15.10;99.90
54846;DHT22;53889;50.084;8.646;2023-05-10T10:48:35;15.20;99.90
54846;DHT22;53889;50.084;8.646;2023-05-10T10:51:02;15.20;99.90
54846;DHT22;53889;50.084;8.646;2023-05-10T10:53:29;15.30;99.90
54846;DHT22;53889;50.084;8.646;2023-05-10T10:56:05;16.00;99.90
54846;DHT22;53889;50.084;8.646;2023-05-10T10:58:33;15.30;99.90
54846;DHT22;53889;50.084;8.646;2023-05-10T11:01:10;15.30;99.90
54846;DHT22;53889;50.084;8.646;2023-05-10T11:03:39;15.50;99.90
54846;DHT22;53889;50.084;8.646;2023-05-10T11:06:05;15.60;99.90
54846;DHT22;53889;50.084;8.646;2023-05-10T11:08:34;15.70;99.90
54846;DHT22;53889;50.084;8.646;2023-05-10T11:11:07;15.80;99.90
54846;DHT22;53889;50.084;8.646;2023-05-10T11:13:38;16.00;99.90
54846;DHT22;53889;50.084;8.646;2023-05-10T11:16:13;16.10;99.90
54846;DHT22;53889;50.084;8.646;2023-05-10T11:18:52;16.20;99.90
54846;DHT22;53889;50.084;8.646;2023-05-10T11:21:19;16.20;99.90
54846;DHT22;53889;50.084;8.646;2023-05-10T11:23:50;16.20;99.90
54846;DHT22;53889;50.084;8.646;2023-05-10T11:26:18;16.20;99.90
54846;DHT22;53889;50.084;8.646;2023-05-10T11:28:49;16.10;99.90
54846;DHT22;53889;50.084;8.646;2023-05-10T11:31:16;16.10;99.90
54846;DHT22;53889;50.084;8.646;2023-05-10T11:33:45;16.20;99.90
54846;DHT22;53889;50.084;8.646;2023-05-10T11:36:13;16.20;99.90
54846;DHT22;53889;50.084;8.646;2023-05-10T11:38:40;16.20;99.90
54846;DHT22;53889;50.084;8.646;2023-05-10T11:41:08;16.20;99.90
54846;DHT22;53889;50.084;8.646;2023-05-10T11:43:35;16.10;99.90
54846;DHT22;53889;50.084;8.646;2023-05-10T11:46:04;16.00;99.90
54846;DHT22;53889;50.084;8.646;2023-05-10T11:48:31;15.90;99.90
54846;DHT22;53889;50.084;8.646;2023-05-10T11:51:00;15.80;99.90
54846;DHT22;53889;50.084;8.646;2023-05-10T11:53:28;15.80;99.90
54846;DHT22;53889;50.084;8.646;2023-05-10T11:55:58;15.80;99.90
54846;DHT22;53889;50.084;8.646;2023-05-10T11:58:28;15.80;99.90
54846;DHT22;53889;50.084;8.646;2023-05-10T12:00:55;15.90;99.90
54846;DHT22;53889;50.084;8.646;2023-05-10T12:03:22;16.00;99.90
54846;DHT22;53889;50.084;8.646;2023-05-10T12:05:48;16.20;99.90
54846;DHT22;53889;50.084;8.646;2023-05-10T12:08:21;16.40;99.90
54846;DHT22;53889;50.084;8.646;2023-05-10T12:10:48;16.50;99.90
54846;DHT22;53889;50.084;8.646;2023-05-10T12:13:15;16.70;99.90
54846;DHT22;53889;50.084;8.646;2023-05-10T12:15:42;17.00;99.90
54846;DHT22;53889;50.084;8.646;2023-05-10T12:18:09;17.40;99.90
54846;DHT22;53889;50.084;8.646;2023-05-10T12:20:37;17.60;99.90
54846;DHT22;53889;50.084;8.646;2023-05-10T12:23:04;17.90;99.90
54846;DHT22;53889;50.084;8.646;2023-05-10T12:25:33;18.20;99.90
54846;DHT22;53889;50.084;8.646;2023-05-10T12:28:03;18.30;99.90
54846;DHT22;53889;50.084;8.646;2023-05-10T12:30:31;18.40;99.90
54846;DHT22;53889;50.084;8.646;2023-05-10T12:33:00;18.70;99.90
54846;DHT22;53889;50.084;8.646;2023-05-10T12:35:30;18.90;99.90
54846;DHT22;53889;50.084;8.646;2023-05-10T12:37:57;19.20;99.90
54846;DHT22;53889;50.084;8.646;2023-05-10T12:40:24;19.30;99.90
54846;DHT22;53889;50.084;8.646;2023-05-10T12:42:52;19.10;99.90
54846;DHT22;53889;50.084;8.646;2023-05-10T12:45:19;19.20;99.90
54846;DHT22;53889;50.084;8.646;2023-05-10T12:47:46;19.50;99.90
54846;DHT22;53889;50.084;8.646;2023-05-10T12:50:13;19.70;99.90
54846;DHT22;53889;50.084;8.646;2023-05-10T12:52:39;20.00;99.90
54846;DHT22;53889;50.084;8.646;2023-05-10T12:55:07;19.80;99.90
54846;DHT22;53889;50.084;8.646;2023-05-10T12:57:33;19.50;99.90
54846;DHT22;53889;50.084;8.646;2023-05-10T13:00:02;19.30;99.90
54846;DHT22;53889;50.084;8.646;2023-05-10T13:02:30;19.50;99.90
54846;DHT22;53889;50.084;8.646;2023-05-10T13:04:57;19.30;99.90
54846;DHT22;53889;50.084;8.646;2023-05-10T13:07:23;19.20;99.90
54846;DHT22;53889;50.084;8.646;2023-05-10T13:09:50;18.80;99.90
54846;DHT22;53889;50.084;8.646;2023-05-10T13:12:17;18.80;99.90
54846;DHT22;53889;50.084;8.646;2023-05-10T13:14:43;18.70;99.90
54846;DHT22;53889;50.084;8.646;2023-05-10T13:17:11;18.70;99.90
54846;DHT22;53889;50.084;8.646;2023-05-10T13:19:38;18.80;99.90
54846;DHT22;53889;50.084;8.646;2023-05-10T13:22:05;18.50;99.90
54846;DHT22;53889;50.084;8.646;2023-05-10T13:24:31;18.40;99.90
54846;DHT22;53889;50.084;8.646;2023-05-10T13:26:58;18.60;99.90
54846;DHT22;53889;50.084;8.646;2023-05-10T13:29:25;18.70;99.90
54846;DHT22;53889;50.084;8.646;2023-05-10T13:31:52;19.70;99.90
54846;DHT22;53889;50.084;8.646;2023-05-10T13:34:20;19.20;99.10
54846;DHT22;53889;50.084;8.646;2023-05-10T13:36:47;19.20;98.20
54846;DHT22;53889;50.084;8.646;2023-05-10T13:39:14;19.20;98.20
54846;DHT22;53889;50.084;8.646;2023-05-10T13:41:41;19.30;97.10
54846;DHT22;53889;50.084;8.646;2023-05-10T13:44:08;19.00;96.40
54846;DHT22;53889;50.084;8.646;2023-05-10T13:46:34;18.80;96.60
54846;DHT22;53889;50.084;8.646;2023-05-10T13:49:01;19.00;97.40
54846;DHT22;53889;50.084;8.646;2023-05-10T13:51:29;19.30;97.10
54846;DHT22;53889;50.084;8.646;2023-05-10T13:53:57;19.70;95.40
54846;DHT22;53889;50.084;8.646;2023-05-10T13:56:23;19.10;96.50
54846;DHT22;53889;50.084;8.646;2023-05-10T13:58:50;19.00;95.30
54846;DHT22;53889;50.084;8.646;2023-05-10T14:01:17;18.90;95.30
54846;DHT22;53889;50.084;8.646;2023-05-10T14:03:44;18.90;96.20
54846;DHT22;53889;50.084;8.646;2023-05-10T14:06:11;21.10;96.50
54846;DHT22;53889;50.084;8.646;2023-05-10T14:08:39;19.40;96.30
54846;DHT22;53889;50.084;8.646;2023-05-10T14:11:05;19.50;95.30
54846;DHT22;53889;50.084;8.646;2023-05-10T14:13:32;19.30;95.80
54846;DHT22;53889;50.084;8.646;2023-05-10T14:15:59;19.20;95.40
54846;DHT22;53889;50.084;8.646;2023-05-10T14:18:26;19.20;95.40
54846;DHT22;53889;50.084;8.646;2023-05-10T14:20:53;19.30;96.10
54846;DHT22;53889;50.084;8.646;2023-05-10T14:23:21;19.20;95.40
54846;DHT22;53889;50.084;8.646;2023-05-10T14:25:51;19.00;95.90
54846;DHT22;53889;50.084;8.646;2023-05-10T14:28:19;19.10;95.80
54846;DHT22;53889;50.084;8.646;2023-05-10T14:30:46;19.10;96.00
54846;DHT22;53889;50.084;8.646;2023-05-10T14:33:13;19.00;95.50
54846;DHT22;53889;50.084;8.646;2023-05-10T14:35:39;19.00;95.80
54846;DHT22;53889;50.084;8.646;2023-05-10T14:38:06;19.20;95.90
54846;DHT22;53889;50.084;8.646;2023-05-10T14:40:33;19.30;95.10
54846;DHT22;53889;50.084;8.646;2023-05-10T14:43:01;19.30;95.00
54846;DHT22;53889;50.084;8.646;2023-05-10T14:45:28;19.30;95.70
54846;DHT22;53889;50.084;8.646;2023-05-10T14:47:54;19.40;96.00
54846;DHT22;53889;50.084;8.646;2023-05-10T14:50:21;19.30;95.90
54846;DHT22;53889;50.084;8.646;2023-05-10T14:52:48;19.10;95.70
54846;DHT22;53889;50.084;8.646;2023-05-10T14:55:15;19.10;96.00
54846;DHT22;53889;50.084;8.646;2023-05-10T14:57:42;19.00;95.60
54846;DHT22;53889;50.084;8.646;2023-05-10T15:00:14;19.00;95.80
54846;DHT22;53889;50.084;8.646;2023-05-10T15:02:41;19.10;95.80
54846;DHT22;53889;50.084;8.646;2023-05-10T15:05:08;19.20;96.40
54846;DHT22;53889;50.084;8.646;2023-05-10T15:07:35;19.30;95.90
54846;DHT22;53889;50.084;8.646;2023-05-10T15:10:02;19.20;95.40
54846;DHT22;53889;50.084;8.646;2023-05-10T15:12:29;19.10;95.40
54846;DHT22;53889;50.084;8.646;2023-05-10T15:14:56;18.90;96.00
54846;DHT22;53889;50.084;8.646;2023-05-10T15:17:25;19.00;96.30
54846;DHT22;53889;50.084;8.646;2023-05-10T15:19:52;21.20;96.90
54846;DHT22;53889;50.084;8.646;2023-05-10T15:22:19;19.00;96.40
54846;DHT22;53889;50.084;8.646;2023-05-10T15:24:46;19.00;96.60
54846;DHT22;53889;50.084;8.646;2023-05-10T15:27:13;19.10;96.70
54846;DHT22;53889;50.084;8.646;2023-05-10T15:29:40;19.10;96.60
54846;DHT22;53889;50.084;8.646;2023-05-10T15:32:07;19.20;96.80
54846;DHT22;53889;50.084;8.646;2023-05-10T15:34:35;19.30;96.70
54846;DHT22;53889;50.084;8.646;2023-05-10T15:37:02;19.30;96.40
54846;DHT22;53889;50.084;8.646;2023-05-10T15:39:29;19.40;96.40